Time;durP1;ratioP1;P1;durP2;ratioP2;P2;SDS_P1;SDS_P2;PMS_P1;PMS_P2;Temp;Humidity;BMP_temperature;BMP_pressure;BME280_temperature;BME280_humidity;BME280_pressure;Samples;Min_cycle;Max_cycle;Signal;HPM_P1;HPM_P2
2022/10/02 00:02:35;;;;;;;38.15;4.75;;;;;;;12.53;100.00;101106.75;5057641;28;20520;-86
2022/10/02 00:05:09;;;;;;;42.42;5.05;;;;;;;12.54;100.00;101099.38;5057701;28;20078;-86
2022/10/02 00:08:01;;;;;;;36.67;4.50;;;;;;;12.55;100.00;101114.88;5071968;28;20094;-86
2022/10/02 00:11:08;;;;;;;36.95;6.70;;;;;;;12.55;100.00;101104.75;5058627;28;20018;-86
2022/10/02 00:13:39;;;;;;;39.88;5.28;;;;;;;12.57;100.00;101121.97;5000348;28;20038;-86
2022/10/02 00:16:26;;;;;;;56.05;5.50;;;;;;;12.59;100.00;101119.97;5053337;28;20048;-86
2022/10/02 00:18:54;;;;;;;43.55;6.53;;;;;;;12.60;100.00;101124.47;5060803;28;20032;-86
2022/10/02 00:21:48;;;;;;;38.58;5.10;;;;;;;12.62;100.00;101119.69;5047366;28;20120;-86
2022/10/02 00:24:17;;;;;;;49.95;5.40;;;;;;;12.65;100.00;101129.56;5058211;28;20029;-86
2022/10/02 00:26:57;;;;;;;52.25;5.43;;;;;;;12.62;100.00;101122.44;5057681;28;20042;-86
2022/10/02 00:29:44;;;;;;;52.60;4.65;;;;;;;12.65;100.00;101116.69;5058961;28;20021;-85
2022/10/02 00:32:18;;;;;;;46.03;5.45;;;;;;;12.59;100.00;101116.34;5055230;28;20045;-85
2022/10/02 00:35:16;;;;;;;46.88;5.28;;;;;;;12.59;100.00;101128.22;5060892;28;20119;-86
2022/10/02 00:38:00;;;;;;;34.97;5.43;;;;;;;12.57;100.00;101129.34;5054541;28;20186;-85
2022/10/02 00:40:44;;;;;;;46.70;4.50;;;;;;;12.56;100.00;101124.84;5044430;28;20083;-87
2022/10/02 00:43:21;;;;;;;46.63;5.03;;;;;;;12.55;100.00;101134.97;5034997;28;20037;-85
2022/10/02 00:45:55;;;;;;;45.00;7.63;;;;;;;12.58;100.00;101126.47;5049638;28;20053;-85
2022/10/02 00:48:45;;;;;;;69.38;7.45;;;;;;;12.59;100.00;101138.31;5050690;28;20044;-85
2022/10/02 00:51:21;;;;;;;54.55;6.13;;;;;;;12.57;100.00;101129.34;5060777;28;20378;-86
2022/10/02 00:54:15;;;;;;;46.13;5.47;;;;;;;12.65;100.00;101130.44;5036945;28;20045;-85
2022/10/02 00:57:17;;;;;;;46.83;5.90;;;;;;;12.72;100.00;101138.16;5054073;28;20036;-86
2022/10/02 01:00:06;;;;;;;48.10;5.88;;;;;;;12.74;100.00;101133.41;5042905;28;20033;-86
2022/10/02 01:02:35;;;;;;;58.30;5.75;;;;;;;12.76;100.00;101129.53;5073378;28;20037;-84
2022/10/02 01:05:07;;;;;;;66.50;5.80;;;;;;;12.78;100.00;101132.16;5029936;28;20037;-86
2022/10/02 01:07:41;;;;;;;60.28;5.53;;;;;;;12.78;100.00;101132.16;5064545;28;20076;-85
2022/10/02 01:10:08;;;;;;;58.47;6.03;;;;;;;12.82;100.00;101120.78;5052155;28;20472;-84
2022/10/02 01:12:34;;;;;;;49.03;4.63;;;;;;;12.89;100.00;101129.38;5068118;28;20041;-84
2022/10/02 01:14:59;;;;;;;45.35;4.55;;;;;;;12.89;100.00;101140.38;5083212;28;20013;-84
2022/10/02 01:17:33;;;;;;;60.33;5.63;;;;;;;12.84;100.00;101131.66;5050348;28;20021;-85
2022/10/02 01:20:01;;;;;;;54.22;5.88;;;;;;;12.83;100.00;101129.91;5066726;28;20048;-85
2022/10/02 01:22:56;;;;;;;55.78;6.22;;;;;;;12.90;100.00;101130.25;5032919;28;20051;-84
2022/10/02 01:25:21;;;;;;;43.92;3.97;;;;;;;12.87;100.00;101134.13;5057520;28;20040;-86
2022/10/02 01:27:47;;;;;;;52.65;5.55;;;;;;;12.93;100.00;101130.00;5043448;28;20032;-85
2022/10/02 01:30:18;;;;;;;60.15;4.60;;;;;;;12.89;100.00;101134.88;5065493;28;20039;-85
2022/10/02 01:32:51;;;;;;;43.42;4.05;;;;;;;12.93;100.00;101121.75;5066390;28;20036;-86
2022/10/02 01:35:19;;;;;;;;;;;;;;;12.92;100.00;101126.38;5064581;28;20032;-86
2022/10/02 01:37:45;;;;;;;77.65;6.32;;;;;;;12.89;100.00;101123.88;5049220;28;19977;-85
2022/10/02 01:40:27;;;;;;;54.67;4.97;;;;;;;12.95;100.00;101120.59;5043778;28;20032;-86
2022/10/02 01:42:55;;;;;;;48.40;5.60;;;;;;;13.01;100.00;101131.06;5055603;28;20043;-86
2022/10/02 01:45:35;;;;;;;74.40;6.00;;;;;;;13.03;100.00;101129.06;5044256;28;20108;-86
2022/10/02 01:48:14;;;;;;;61.30;7.57;;;;;;;12.95;100.00;101130.72;5059845;28;20031;-86
2022/10/02 01:50:53;;;;;;;72.38;5.93;;;;;;;12.97;100.00;101129.63;5060165;28;20126;-86
2022/10/02 01:53:29;;;;;;;65.60;6.85;;;;;;;12.99;100.00;101137.72;5061229;28;20032;-86
2022/10/02 01:56:26;;;;;;;56.88;5.75;;;;;;;13.05;100.00;101129.81;5061225;28;20140;-87
2022/10/02 01:59:19;;;;;;;48.78;5.78;;;;;;;13.10;100.00;101136.78;5048693;28;20025;-85
2022/10/02 02:01:51;;;;;;;;;;;;;;;13.05;100.00;101131.69;5058872;28;20040;-86
2022/10/02 02:04:28;;;;;;;63.88;5.80;;;;;;;13.05;100.00;101128.94;5057882;28;20277;-85
2022/10/02 02:07:29;;;;;;;72.35;6.32;;;;;;;13.02;100.00;101124.59;5060759;28;20095;-85
2022/10/02 02:10:23;;;;;;;67.70;7.88;;;;;;;12.98;100.00;101125.84;5059956;28;20033;-86
2022/10/02 02:13:06;;;;;;;54.55;5.15;;;;;;;12.92;100.00;101126.38;5041745;28;20510;-86
2022/10/02 02:15:56;;;;;;;56.35;5.50;;;;;;;12.98;100.00;101139.59;5058996;28;20040;-86
2022/10/02 02:18:34;;;;;;;61.22;5.53;;;;;;;12.94;100.00;101140.84;5059428;28;20035;-86
2022/10/02 02:21:25;;;;;;;55.72;7.07;;;;;;;12.85;100.00;101131.53;5057407;28;20033;-85
2022/10/02 02:23:53;;;;;;;57.25;5.82;;;;;;;12.91;100.00;101145.75;5047386;28;20106;-86
2022/10/02 02:26:20;;;;;;;52.38;5.97;;;;;;;12.92;100.00;101139.22;5061535;28;20085;-86
2022/10/02 02:28:51;;;;;;;60.47;7.75;;;;;;;12.98;100.00;101145.09;5041702;28;20432;-84
2022/10/02 02:31:23;;;;;;;62.10;6.25;;;;;;;12.98;100.00;101138.72;5041597;28;20059;-85
2022/10/02 02:34:03;;;;;;;57.95;5.20;;;;;;;12.97;100.00;101137.84;5047418;28;20502;-85
2022/10/02 02:36:37;;;;;;;69.05;9.40;;;;;;;12.96;100.00;101141.59;5043404;28;20032;-84
2022/10/02 02:39:08;;;;;;;60.08;6.20;;;;;;;12.96;100.00;101140.72;5044453;28;20029;-85
2022/10/02 02:41:41;;;;;;;58.53;7.15;;;;;;;12.97;100.00;101148.84;5060698;28;20013;-85
2022/10/02 02:44:09;;;;;;;63.22;7.68;;;;;;;13.04;100.00;101149.19;5047597;28;20025;-85
2022/10/02 02:49:29;;;;;;;64.72;6.00;;;;;;;13.10;100.00;101153.28;5073593;28;20025;-85
2022/10/02 02:51:59;;;;;;;69.75;7.03;;;;;;;13.14;100.00;101146.53;5062815;28;20488;-85
2022/10/02 02:54:35;;;;;;;65.10;6.13;;;;;;;13.11;100.00;101138.56;5044424;28;20021;-85
2022/10/02 02:57:05;;;;;;;55.10;5.85;;;;;;;13.16;100.00;101139.03;5071329;28;20040;-85
2022/10/02 02:59:33;;;;;;;50.10;5.35;;;;;;;13.24;100.00;101144.75;5045009;28;20033;-86
2022/10/02 03:01:58;;;;;;;54.95;6.20;;;;;;;13.21;100.00;101150.50;5039430;28;20036;-86
2022/10/02 03:04:24;;;;;;;49.95;5.85;;;;;;;13.16;100.00;101141.78;5043700;28;20045;-86
2022/10/02 03:06:54;;;;;;;65.10;7.43;;;;;;;13.21;100.00;101151.38;5026840;28;20496;-86
2022/10/02 03:09:21;;;;;;;69.82;6.40;;;;;;;13.11;100.00;101135.81;5043731;28;20222;-86
2022/10/02 03:11:49;;;;;;;64.40;6.25;;;;;;;13.23;100.00;101156.72;5042633;28;20472;-86
2022/10/02 03:14:24;;;;;;;70.15;6.32;;;;;;;13.24;100.00;101150.25;5057955;28;20040;-85
2022/10/02 03:17:10;;;;;;;61.60;5.82;;;;;;;13.22;100.00;101146.75;5052755;28;20037;-85
2022/10/02 03:19:56;;;;;;;54.40;6.20;;;;;;;13.19;100.00;101149.75;5040309;28;20029;-84
2022/10/02 03:22:48;;;;;;;54.92;5.93;;;;;;;13.14;100.00;101149.28;5041170;28;20132;-85
2022/10/02 03:25:20;;;;;;;53.70;5.90;;;;;;;13.12;100.00;101145.78;5039414;28;20041;-84
2022/10/02 03:27:48;;;;;;;51.23;6.60;;;;;;;13.10;100.00;101140.44;5049502;28;20039;-85
2022/10/02 03:30:19;;;;;;;35.47;4.93;;;;;;;13.08;100.00;101122.31;5039307;28;20032;-85
2022/10/02 03:32:46;;;;;;;37.05;5.70;;;;;;;13.01;100.00;101132.97;5043442;28;20029;-84
2022/10/02 03:35:13;;;;;;;38.80;4.80;;;;;;;13.05;100.00;101140.81;5059057;28;20040;-84
2022/10/02 03:37:46;;;;;;;36.50;4.18;;;;;;;13.11;100.00;101141.31;5041297;28;20381;-84
2022/10/02 03:40:12;;;;;;;33.60;4.32;;;;;;;13.10;100.00;101142.28;5035206;28;20083;-85
2022/10/02 03:42:38;;;;;;;56.28;6.22;;;;;;;13.01;100.00;101136.56;5041528;28;20033;-85
2022/10/02 03:45:05;;;;;;;39.50;5.32;;;;;;;13.01;100.00;101135.72;5025820;28;20475;-84
2022/10/02 03:47:30;;;;;;;45.17;4.38;;;;;;;12.92;100.00;101139.22;5026249;28;20040;-84
2022/10/02 03:49:56;;;;;;;33.63;4.90;;;;;;;12.93;100.00;101141.00;5023937;28;20030;-84
2022/10/02 03:52:22;;;;;;;42.42;5.30;;;;;;;12.84;100.00;101132.53;5041096;28;20037;-83
2022/10/02 03:54:53;;;;;;;35.20;4.78;;;;;;;12.81;100.00;101138.28;5043664;28;20036;-84
2022/10/02 03:57:24;;;;;;;28.58;5.07;;;;;;;12.80;100.00;101141.16;5061115;28;20059;-84
2022/10/02 03:59:56;;;;;;;35.05;5.93;;;;;;;12.76;100.00;101142.41;5060732;28;20032;-84
2022/10/02 04:02:33;;;;;;;25.63;4.57;;;;;;;12.82;100.00;101152.88;5059901;28;20111;-84
2022/10/02 04:05:14;;;;;;;23.40;3.88;;;;;;;12.81;100.00;101153.91;5057331;28;20523;-84
2022/10/02 04:07:43;;;;;;;36.28;3.90;;;;;;;12.79;100.00;101156.78;5053641;28;20064;-84
2022/10/02 04:10:11;;;;;;;23.40;4.05;;;;;;;12.78;100.00;101163.25;5038957;28;20046;-84
2022/10/02 04:12:40;;;;;;;25.38;4.50;;;;;;;12.75;100.00;101155.25;5040487;28;20040;-84
2022/10/02 04:15:18;;;;;;;31.83;4.95;;;;;;;12.74;100.00;101164.53;5051973;28;20369;-84
2022/10/02 04:17:53;;;;;;;30.40;4.03;;;;;;;12.81;100.00;101165.75;5059242;28;20056;-84
2022/10/02 04:20:25;;;;;;;25.75;4.20;;;;;;;12.81;100.00;101160.25;5044390;28;20096;-84
2022/10/02 04:23:13;;;;;;;33.63;4.90;;;;;;;12.83;100.00;101158.25;5047819;28;20040;-84
2022/10/02 04:25:47;;;;;;;20.67;5.65;;;;;;;12.78;100.00;101173.38;5037260;28;20037;-84
2022/10/02 04:28:16;;;;;;;26.08;5.22;;;;;;;12.77;100.00;101172.50;5038827;28;20116;-85
2022/10/02 04:30:41;;;;;;;29.63;5.63;;;;;;;12.67;100.00;101157.78;5058971;28;20025;-85
2022/10/02 04:33:21;;;;;;;31.38;5.55;;;;;;;12.69;100.00;101167.66;5058431;28;20036;-86
2022/10/02 04:36:06;;;;;;;33.53;6.32;;;;;;;12.67;100.00;101166.91;5041012;28;20025;-84
2022/10/02 04:39:08;;;;;;;30.48;7.05;;;;;;;12.60;100.00;101162.06;5048203;28;20090;-85
2022/10/02 04:41:42;;;;;;;36.85;7.10;;;;;;;12.58;100.00;101153.06;5059185;28;20502;-85
2022/10/02 04:44:31;;;;;;;28.63;6.95;;;;;;;12.61;100.00;101155.53;5061107;28;20033;-85
2022/10/02 04:47:30;;;;;;;40.22;8.90;;;;;;;12.63;100.00;101165.41;5058422;28;20117;-84
2022/10/02 04:49:59;;;;;;;36.50;8.73;;;;;;;12.65;100.00;101160.66;5067361;28;20060;-85
2022/10/02 04:52:55;;;;;;;47.88;10.20;;;;;;;12.70;100.00;101171.25;5062473;28;20025;-84
2022/10/02 04:55:33;;;;;;;52.33;11.05;;;;;;;12.76;100.00;101178.16;5065434;28;20029;-86
2022/10/02 04:58:27;;;;;;;55.05;11.98;;;;;;;12.77;100.00;101179.88;5048395;28;20040;-85
2022/10/02 05:01:20;;;;;;;45.17;11.93;;;;;;;12.78;100.00;101182.50;5045071;28;20065;-85
2022/10/02 05:04:01;;;;;;;42.30;11.90;;;;;;;12.76;100.00;101183.63;5043230;28;20029;-84
2022/10/02 05:07:04;;;;;;;38.53;10.60;;;;;;;12.77;100.00;101185.38;5064877;28;20057;-85
2022/10/02 05:10:00;;;;;;;42.50;10.77;;;;;;;12.70;100.00;101179.50;5064307;28;20029;-86
2022/10/02 05:12:35;;;;;;;43.72;10.93;;;;;;;12.75;100.00;101187.38;5046733;28;20030;-85
2022/10/02 05:15:40;;;;;;;42.25;11.30;;;;;;;12.74;100.00;101194.75;5048746;28;20469;-85
2022/10/02 05:18:43;;;;;;;30.08;10.57;;;;;;;12.76;100.00;101187.25;5043739;28;20065;-84
2022/10/02 05:21:27;;;;;;;36.80;13.57;;;;;;;12.84;100.00;101192.97;5054644;28;20092;-83
2022/10/02 05:24:09;;;;;;;44.88;12.70;;;;;;;12.82;100.00;101196.84;5044155;28;20040;-82
2022/10/02 05:26:41;;;;;;;41.15;11.73;;;;;;;12.86;100.00;101190.97;5053101;28;20035;-83
2022/10/02 05:29:16;;;;;;;52.67;13.27;;;;;;;12.87;100.00;101183.59;5063811;28;20043;-83
2022/10/02 05:32:20;;;;;;;42.00;13.30;;;;;;;12.92;100.00;101192.34;5048396;28;20033;-83
2022/10/02 05:35:09;;;;;;;56.88;14.55;;;;;;;12.90;100.00;101197.06;5048252;28;20055;-83
2022/10/02 05:37:46;;;;;;;69.35;16.65;;;;;;;12.92;100.00;101200.59;5065344;28;20033;-83
2022/10/02 05:40:39;;;;;;;64.55;14.55;;;;;;;12.92;100.00;101206.09;5067677;28;20032;-83
2022/10/02 05:43:18;;;;;;;66.90;16.38;;;;;;;12.96;100.00;101217.69;5064343;28;20029;-83
2022/10/02 05:45:51;;;;;;;63.30;14.63;;;;;;;12.97;100.00;101220.31;5060508;28;20079;-83
2022/10/02 05:48:38;;;;;;;55.90;16.15;;;;;;;13.01;100.00;101219.03;5047119;28;20349;-84
2022/10/02 05:51:19;;;;;;;74.47;16.20;;;;;;;13.10;100.00;101219.28;5060368;28;20480;-84
2022/10/02 05:53:52;;;;;;;66.43;16.50;;;;;;;13.06;100.00;101208.53;5061144;28;20054;-83
2022/10/02 05:56:44;;;;;;;68.07;16.27;;;;;;;13.11;100.00;101216.41;5055613;28;20025;-85
2022/10/02 05:59:35;;;;;;;87.38;17.83;;;;;;;13.13;100.00;101214.38;5038629;28;20438;-85
2022/10/02 06:02:41;;;;;;;66.18;17.95;;;;;;;13.16;100.00;101229.75;5063267;28;20033;-85
2022/10/02 06:05:40;;;;;;;80.53;17.55;;;;;;;13.18;100.00;101225.88;5024427;28;20045;-85
2022/10/02 06:08:10;;;;;;;96.38;21.05;;;;;;;13.17;100.00;101226.03;5042746;28;20599;-86
2022/10/02 06:11:00;;;;;;;72.45;17.80;;;;;;;13.22;100.00;101223.75;5045824;28;20016;-86
2022/10/02 06:13:35;;;;;;;93.85;19.15;;;;;;;13.28;100.00;101234.25;5060463;28;20037;-85
2022/10/02 06:16:18;;;;;;;94.25;17.38;;;;;;;13.31;100.00;101238.59;5059183;28;20072;-85
2022/10/02 06:18:48;;;;;;;91.82;16.73;;;;;;;13.34;100.00;101233.72;5050086;28;20056;-85
2022/10/02 06:21:52;;;;;;;88.85;16.70;;;;;;;13.34;100.00;101239.22;5059203;28;20131;-85
2022/10/02 06:24:24;;;;;;;79.20;17.25;;;;;;;13.35;100.00;101238.25;5032118;28;20130;-86
2022/10/02 06:27:37;;;;;;;69.93;15.10;;;;;;;13.34;100.00;101246.63;5043120;28;20098;-84
2022/10/02 06:30:07;;;;;;;84.23;16.23;;;;;;;13.38;100.00;101257.22;5034976;28;20060;-85
2022/10/02 06:32:40;;;;;;;67.97;15.68;;;;;;;13.33;100.00;101243.00;5062146;28;20288;-86
2022/10/02 06:35:12;;;;;;;75.35;13.93;;;;;;;13.36;100.00;101259.25;5060508;28;20021;-85
2022/10/02 06:37:41;;;;;;;73.68;13.07;;;;;;;13.34;100.00;101258.47;5052371;28;20031;-84
2022/10/02 06:40:16;;;;;;;81.82;13.23;;;;;;;13.38;100.00;101259.97;5038023;28;20037;-85
2022/10/02 06:43:01;;;;;;;67.95;13.52;;;;;;;13.35;100.00;101263.00;5084926;28;20035;-85
2022/10/02 06:45:59;;;;;;;79.55;13.05;;;;;;;13.47;100.00;101268.47;5042951;28;20037;-84
2022/10/02 06:48:54;;;;;;;65.07;11.73;;;;;;;13.40;100.00;101251.59;5054194;28;20495;-84
2022/10/02 06:51:29;;;;;;;80.55;14.13;;;;;;;13.45;100.00;101267.72;5066402;28;20199;-84
2022/10/02 06:54:27;;;;;;;85.72;14.63;;;;;;;13.48;100.00;101273.84;5071567;28;20503;-84
2022/10/02 06:57:08;;;;;;;73.88;13.23;;;;;;;13.50;100.00;101277.31;5041256;28;20073;-84
2022/10/02 06:59:46;;;;;;;83.30;13.70;;;;;;;13.53;100.00;101274.31;5061385;28;20021;-86
2022/10/02 07:02:25;;;;;;;70.22;12.90;;;;;;;13.50;100.00;101271.81;5047416;28;20041;-87
2022/10/02 07:05:25;;;;;;;60.08;12.48;;;;;;;13.56;100.00;101278.66;5071630;28;20056;-85
2022/10/02 07:08:03;;;;;;;75.55;13.98;;;;;;;13.58;100.00;101280.28;5053496;28;21580;-85
2022/10/02 07:10:37;;;;;;;75.72;13.65;;;;;;;13.57;100.00;101292.28;5037054;28;20040;-85
2022/10/02 07:13:24;;;;;;;57.63;12.80;;;;;;;13.64;100.00;101294.53;5071704;28;20040;-85
2022/10/02 07:15:56;;;;;;;74.90;14.05;;;;;;;13.66;100.00;101290.66;5031746;28;20044;-83
2022/10/02 07:18:58;;;;;;;67.90;13.38;;;;;;;13.63;100.00;101307.41;5053831;28;20036;-84
2022/10/02 07:21:37;;;;;;;55.10;13.80;;;;;;;13.60;100.00;101291.16;5030723;28;20540;-85
2022/10/02 07:24:18;;;;;;;67.97;12.80;;;;;;;13.60;100.00;101299.41;5058931;28;20064;-83
2022/10/02 07:26:46;;;;;;;62.92;13.23;;;;;;;13.64;100.00;101300.03;5058714;28;20036;-85
2022/10/02 07:29:36;;;;;;;62.03;11.93;;;;;;;13.62;100.00;101302.03;5055092;28;20035;-85
2022/10/02 07:32:37;;;;;;;47.70;11.35;;;;;;;13.64;100.00;101300.88;5054586;28;20037;-85
2022/10/02 07:35:26;;;;;;;49.20;12.55;;;;;;;13.66;100.00;101307.16;5054993;28;20090;-85
2022/10/02 07:37:58;;;;;;;52.90;13.13;;;;;;;13.69;100.00;101320.66;5049799;28;22040;-85
2022/10/02 07:40:42;;;;;;;50.97;12.10;;;;;;;13.73;100.00;101324.88;5042529;28;20054;-84
2022/10/02 07:43:38;;;;;;;52.92;13.93;;;;;;;13.62;100.00;101329.56;5055365;28;20029;-85
2022/10/02 07:46:15;;;;;;;52.97;13.75;;;;;;;13.60;100.00;101326.94;5052447;28;20094;-85
2022/10/02 07:49:25;;;;;;;57.78;14.55;;;;;;;13.64;100.00;101327.53;5057229;28;20028;-86
2022/10/02 07:52:05;;;;;;;44.75;13.23;;;;;;;13.67;100.00;101322.66;5040305;28;20074;-86
2022/10/02 07:54:59;;;;;;;53.55;12.70;;;;;;;13.74;100.00;101326.66;5050213;28;20040;-85
2022/10/02 07:57:31;;;;;;;54.55;13.75;;;;;;;13.73;100.00;101333.13;5038097;28;20126;-84
2022/10/02 08:00:10;;;;;;;43.22;13.45;;;;;;;13.82;100.00;101331.47;5058379;28;20037;-85
2022/10/02 08:02:45;;;;;;;48.65;12.82;;;;;;;13.85;100.00;101330.34;5066694;28;20029;-84
2022/10/02 08:05:27;;;;;;;40.33;12.77;;;;;;;13.86;100.00;101332.13;5056808;28;20036;-84
2022/10/02 08:08:01;;;;;;;44.55;11.77;;;;;;;13.96;100.00;101341.31;5052963;28;20045;-84
2022/10/02 08:10:32;;;;;;;33.92;10.48;;;;;;;14.03;100.00;101331.53;5054288;28;20097;-83
2022/10/02 08:13:22;;;;;;;40.78;10.55;;;;;;;14.11;100.00;101337.22;5052202;28;20039;-84
2022/10/02 08:15:53;;;;;;;39.47;11.98;;;;;;;14.28;100.00;101341.28;5057190;28;20423;-84
2022/10/02 08:18:26;;;;;;;35.38;11.30;;;;;;;14.32;100.00;101347.41;5043238;28;20380;-84
2022/10/02 08:20:53;;;;;;;38.03;12.38;;;;;;;14.22;100.00;101343.72;5061565;28;20067;-83
2022/10/02 08:23:30;;;;;;;37.05;12.02;;;;;;;14.29;100.00;101350.44;5044308;28;20029;-84
2022/10/02 08:26:03;;;;;;;34.05;11.98;;;;;;;14.25;100.00;101352.56;5057557;28;20036;-83
2022/10/02 08:28:56;;;;;;;58.33;14.20;;;;;;;14.36;100.00;101362.66;5070631;28;20044;-84
2022/10/02 08:31:23;;;;;;;34.00;12.82;;;;;;;14.32;100.00;101362.03;5062347;28;20033;-85
2022/10/02 08:33:48;;;;;;;41.90;13.93;;;;;;;14.48;100.00;101367.09;5058343;28;20025;-85
2022/10/02 08:36:32;;;;;;;47.80;14.55;;;;;;;14.57;100.00;101375.56;5041641;28;20067;-84
2022/10/02 08:39:27;;;;;;;46.70;14.02;;;;;;;14.73;100.00;101375.13;5073533;28;20040;-85
2022/10/02 08:42:16;;;;;;;50.38;13.02;;;;;;;14.57;100.00;101378.31;5062226;28;20048;-85
2022/10/02 08:45:09;;;;;;;40.30;13.50;;;;;;;14.73;100.00;101384.25;5073319;28;20032;-85
2022/10/02 08:47:53;;;;;;;40.08;11.73;;;;;;;14.76;100.00;101384.00;5055490;28;20037;-85
2022/10/02 08:50:28;;;;;;;35.28;12.18;;;;;;;14.77;100.00;101390.38;5061816;28;20032;-86
2022/10/02 08:53:13;;;;;;;33.80;11.45;;;;;;;14.67;100.00;101393.94;5043884;28;20071;-86
2022/10/02 08:56:16;;;;;;;38.03;11.10;;;;;;;14.78;100.00;101397.63;5059512;28;20473;-86
2022/10/02 08:59:00;;;;;;;35.08;10.07;;;;;;;14.69;100.00;101396.56;5043860;28;20097;-86
2022/10/02 09:01:37;;;;;;;37.13;9.98;;;;;;;14.78;100.00;101409.53;5064419;28;20044;-86
2022/10/02 09:04:22;;;;;;;40.60;11.13;;;;;;;14.89;100.00;101411.34;5061244;28;20119;-86
2022/10/02 09:07:19;;;;;;;32.88;10.57;;;;;;;14.95;100.00;101415.44;5059995;28;20045;-85
2022/10/02 09:10:22;;;;;;;37.00;10.10;;;;;;;14.97;100.00;101410.66;5044404;28;20037;-85
2022/10/02 09:13:07;;;;;;;33.33;9.32;;;;;;;14.87;100.00;101416.09;5040934;28;20064;-85
2022/10/02 09:15:46;;;;;;;39.10;10.35;;;;;;;14.96;100.00;101412.53;5044960;28;20079;-85
2022/10/02 09:18:53;;;;;;;34.72;10.25;;;;;;;15.06;100.00;101412.59;5042916;28;20068;-85
2022/10/02 09:21:28;;;;;;;35.13;9.77;;;;;;;15.10;100.00;101411.28;5050701;28;20032;-85
2022/10/02 09:24:09;;;;;;;37.72;9.95;;;;;;;14.96;100.00;101418.06;5044434;28;20374;-85
2022/10/02 09:26:56;;;;;;;42.53;10.80;;;;;;;15.10;100.00;101418.72;5040770;28;20030;-85
2022/10/02 09:29:49;;;;;;;36.42;10.43;;;;;;;15.02;100.00;101412.00;5040504;28;20081;-85
2022/10/02 09:32:41;;;;;;;31.88;9.98;;;;;;;15.13;100.00;101421.19;5060898;28;20043;-85
2022/10/02 09:35:35;;;;;;;41.83;11.05;;;;;;;15.33;100.00;101413.88;5041085;28;20052;-85
2022/10/02 09:38:44;;;;;;;43.15;10.15;;;;;;;15.98;100.00;101417.16;5056052;28;20497;-84
2022/10/02 09:41:22;;;;;;;27.15;8.27;;;;;;;16.01;100.00;101418.78;5052971;28;20033;-88
2022/10/02 09:44:05;;;;;;;32.55;10.32;;;;;;;16.25;100.00;101432.16;5042613;28;20037;-86
2022/10/02 09:47:06;;;;;;;26.63;8.07;;;;;;;16.32;100.00;101431.44;5060256;28;20040;-87
2022/10/02 09:49:59;;;;;;;29.33;8.70;;;;;;;15.94;100.00;101438.66;5057438;28;20037;-85
2022/10/02 09:52:52;;;;;;;35.78;9.20;;;;;;;15.53;100.00;101436.94;5056997;28;20025;-86
2022/10/02 09:56:01;;;;;;;34.38;9.50;;;;;;;15.70;100.00;101433.47;5063823;28;20029;-86
2022/10/02 09:58:55;;;;;;;31.60;8.43;;;;;;;15.68;100.00;101441.03;5039981;28;20029;-85
2022/10/02 10:01:45;;;;;;;33.83;9.77;;;;;;;16.30;100.00;101439.00;5056832;28;20036;-85
2022/10/02 10:04:45;;;;;;;38.08;8.90;;;;;;;16.16;100.00;101443.06;5063380;28;20040;-85
2022/10/02 10:07:29;;;;;;;32.15;9.15;;;;;;;16.23;100.00;101445.25;5045378;28;20428;-84
2022/10/02 10:10:18;;;;;;;35.58;8.70;;;;;;;16.07;100.00;101449.47;5042312;28;20040;-85
2022/10/02 10:13:14;;;;;;;32.78;9.45;;;;;;;15.76;100.00;101454.19;5055766;28;20040;-85
2022/10/02 10:16:10;;;;;;;39.42;9.95;;;;;;;15.53;100.00;101457.13;5042572;28;20064;-85
2022/10/02 10:18:38;;;;;;;37.25;10.05;;;;;;;15.54;100.00;101456.06;5040746;28;20037;-85
2022/10/02 10:21:40;;;;;;;34.80;9.73;;;;;;;15.71;100.00;101453.66;5058831;28;20051;-85
2022/10/02 10:24:24;;;;;;;23.37;8.07;;;;;;;16.69;100.00;101466.66;5053344;28;20039;-85
2022/10/02 10:27:30;;;;;;;27.73;7.95;;;;;;;16.54;100.00;101481.91;5069008;28;20135;-85
2022/10/02 10:30:33;;;;;;;35.50;9.05;;;;;;;16.25;100.00;101479.13;5058255;28;20093;-85
2022/10/02 10:33:23;;;;;;;29.60;7.72;;;;;;;16.24;100.00;101477.41;5066125;28;20943;-85
2022/10/02 10:38:30;;;;;;;29.75;8.65;;;;;;;16.12;100.00;101487.72;5066063;28;20385;-85
2022/10/02 10:39:53;;;;;;;26.15;7.93;;;;;;;16.32;100.00;101496.91;5053313;28;20045;-85
2022/10/02 10:42:19;;;;;;;31.85;8.43;;;;;;;16.34;100.00;101504.00;4979380;28;20037;-86
2022/10/02 10:45:10;;;;;;;28.70;7.63;;;;;;;16.73;100.00;101498.50;5023981;28;20040;-85
2022/10/02 10:47:38;;;;;;;25.65;6.90;;;;;;;16.98;100.00;101504.50;5038043;28;20056;-85
2022/10/02 10:50:23;;;;;;;32.63;7.80;;;;;;;16.76;100.00;101513.06;5038056;28;20037;-85
2022/10/02 10:52:50;;;;;;;37.83;7.57;;;;;;;16.54;100.00;101517.84;5032527;28;20542;-85
2022/10/02 10:55:45;;;;;;;26.35;6.93;;;;;;;16.46;100.00;101509.41;5041248;28;20107;-85
2022/10/02 10:58:43;;;;;;;25.25;5.13;;;;;;;16.48;100.00;101512.94;5028853;28;20045;-83
2022/10/02 11:01:22;;;;;;;32.53;5.07;;;;;;;16.48;100.00;101516.56;5052117;28;20033;-86
2022/10/02 11:04:21;;;;;;;26.48;5.35;;;;;;;16.76;100.00;101519.47;5056065;28;20038;-86
2022/10/02 11:07:26;;;;;;;23.90;3.38;;;;;;;16.58;100.00;101523.97;5051851;28;20045;-86
2022/10/02 11:10:21;;;;;;;29.60;3.40;;;;;;;16.45;100.00;101513.22;5060799;28;20141;-84
2022/10/02 11:13:11;;;;;;;24.58;2.90;;;;;;;16.51;100.00;101520.91;5029708;28;20032;-84
2022/10/02 11:16:25;;;;;;;23.63;3.45;;;;;;;16.56;100.00;101518.63;5055636;28;20065;-84
2022/10/02 11:19:17;;;;;;;18.67;2.83;;;;;;;16.47;100.00;101527.75;5025082;28;20045;-84
2022/10/02 11:21:55;;;;;;;23.57;2.63;;;;;;;16.48;100.00;101515.69;5037544;28;20400;-84
2022/10/02 11:24:43;;;;;;;21.88;2.83;;;;;;;16.48;100.00;101510.16;5044801;28;20060;-84
2022/10/02 11:27:36;;;;;;;14.50;2.13;;;;;;;16.49;100.00;101507.22;5057232;28;20024;-84
2022/10/02 11:30:35;;;;;;;26.38;3.13;;;;;;;16.76;100.00;101507.53;5077971;28;20070;-84
2022/10/02 11:33:25;;;;;;;33.95;2.97;;;;;;;16.89;100.00;101510.94;5051454;28;20055;-86
2022/10/02 11:36:41;;;;;;;19.63;3.58;;;;;;;16.98;100.00;101512.78;5050904;28;20060;-84
2022/10/02 11:39:31;;;;;;;22.17;3.33;;;;;;;17.19;100.00;101511.75;5051520;28;20542;-83
2022/10/02 11:42:13;;;;;;;22.17;2.85;;;;;;;17.34;100.00;101515.78;5055274;28;20033;-83
2022/10/02 11:45:03;;;;;;;22.07;3.27;;;;;;;17.44;100.00;101521.28;5054278;28;20040;-84
2022/10/02 11:47:47;;;;;;;18.52;2.85;;;;;;;17.50;100.00;101517.94;5065752;28;20036;-84
2022/10/02 11:51:08;;;;;;;18.38;2.50;;;;;;;17.31;100.00;101507.78;5050816;28;20420;-84
2022/10/02 11:53:58;;;;;;;21.13;2.83;;;;;;;17.45;100.00;101523.91;4974773;28;20026;-84
2022/10/02 11:56:44;;;;;;;24.38;2.95;;;;;;;17.52;100.00;101515.03;5079491;28;20544;-83
2022/10/02 11:59:39;;;;;;;18.40;2.75;;;;;;;17.17;100.00;101514.66;5058056;28;20442;-84
2022/10/02 12:02:14;;;;;;;25.05;3.72;;;;;;;17.30;100.00;101514.34;5042560;28;20033;-84
2022/10/02 12:05:15;;;;;;;19.15;3.10;;;;;;;17.34;100.00;101507.47;5060505;28;20044;-84
2022/10/02 12:07:57;;;;;;;16.30;2.85;;;;;;;17.09;100.00;101514.53;4957903;29;20098;-84
2022/10/02 12:10:41;;;;;;;22.35;2.72;;;;;;;17.12;100.00;101507.81;5064173;28;20392;-84
2022/10/02 12:13:19;;;;;;;22.92;3.35;;;;;;;16.76;100.00;101511.19;5039075;28;20077;-85
2022/10/02 12:15:55;;;;;;;19.33;3.28;;;;;;;16.61;100.00;101519.03;5047157;28;20047;-83
2022/10/02 12:18:30;;;;;;;23.58;4.00;;;;;;;16.52;100.00;101519.91;5054147;28;20037;-80
2022/10/02 12:26:59;;;;;;;16.23;2.70;;;;;;;16.39;100.00;101520.16;5072606;28;20029;-82